Ayacucho, Peru

3:06 PM PET on October 21, 2014 (GMT -0500)
Col Alfredo Mendivil Duarte | Change Station
CLOSE
Current Station
Airport
Location: Ayacucho,
Elevation: 8993 ft
Nearby Weather Stations

Elev 8993 ft 13.15 °S, 74.20 °W | Updated 6 minutes ago

Scattered Clouds
Scattered Clouds
75 °F
Feels Like 75 °F
N
4
Wind Variable Wind from Variable

Today
High -- | Low -- °F
--% Chance of Precip.
Yesterday
High -- | Low -- °F
Precip. -- in
5:27 AM 5:55 PM
Waning Crescent, 4% visible
Pressure 30.24 in
Visibility 6.2 miles
Clouds Scattered Clouds 4600 ft
Scattered Clouds 10000 ft
Dew Point 55 °F
Humidity 50%
Rainfall 0.00 in
Snow Depth Not available.
UV 7 out of 12
Pollen Not available.
Air Quality Not available.
Flu Activity Not available.
METAR SPHO 212000Z VRB03KT 9999 SCT046TCU SCT100 24/13 Q1024 RMK PP000

More Conditions Fewer Conditions

Pressure 30.24 in
Visibility 6.2 miles
Clouds Scattered Clouds 4600 ft
Scattered Clouds 10000 ft
Dew Point 55 °F
Humidity 50%
Rainfall 0.00 in
Snow Depth Not available.
UV 7 out of 12
Pollen Not available.
Air Quality Not available.
Flu Activity Not available.
METAR SPHO 212000Z VRB03KT 9999 SCT046TCU SCT100 24/13 Q1024 RMK PP000

More Conditions Fewer Conditions

10-Day Weather Forecast

Almanac

Astronomy

Oct. 21, 2014 Rise Set
Actual Time 5:27 AM PET 5:55 PM PET
Civil Twilight 5:06 AM PET 6:16 PM PET
Nautical Twilight 4:40 AM PET 6:42 PM PET
Astronomical Twilight 4:15 AM PET 7:07 PM PET
Moon 3:50 AM PET 4:15 PM PET
Length of Visible Light 13h 10m
Length of Day
12h 27m
Tomorrow will be 0m 43s longer.
Waning Crescent, 4% of the Moon is Illuminated
Today
Waning Crescent
Oct 23
New
Oct 30
First Quarter
Nov 6
Full
Nov 14
Last Quarter

Today's Extremes

Country Highs Country Lows

Community

WunderPhotos

Upload Photos

1,763,757 photos uploaded!

Nearby

Snow Depth

Not available.

Earthquake Activity

City Distance Mag. Time & Date
No recent earthquake activity has been reported nearby.
Minimum magnitude displayed is 2.5.

Coastal Water Temperatures

Place Temperature
No Stations Reporting

Nearby Weather Stations